sensor_id;sensor_type;location;lat;lon;timestamp;pressure;altitude;pressure_sealevel;temperature;humidity
54600;BME280;40500;51.084;16.958;2023-02-21T00:00:56;99752.34;;;9.01;100.00
54600;BME280;40500;51.084;16.958;2023-02-21T00:03:47;99753.03;;;9.01;100.00
54600;BME280;40500;51.084;16.958;2023-02-21T00:06:35;99748.46;;;9.03;100.00
54600;BME280;40500;51.084;16.958;2023-02-21T00:09:23;99753.36;;;9.02;100.00
54600;BME280;40500;51.084;16.958;2023-02-21T00:12:11;99750.56;;;9.02;100.00
54600;BME280;40500;51.084;16.958;2023-02-21T00:14:59;99752.35;;;9.00;100.00
54600;BME280;40500;51.084;16.958;2023-02-21T00:17:47;99742.61;;;8.98;100.00
54600;BME280;40500;51.084;16.958;2023-02-21T00:20:35;99748.89;;;8.99;100.00
54600;BME280;40500;51.084;16.958;2023-02-21T00:23:23;99750.10;;;9.00;100.00
54600;BME280;40500;51.084;16.958;2023-02-21T00:26:15;99748.38;;;8.99;100.00
54600;BME280;40500;51.084;16.958;2023-02-21T00:29:04;99746.14;;;8.97;100.00
54600;BME280;40500;51.084;16.958;2023-02-21T00:31:52;99744.58;;;8.96;100.00
54600;BME280;40500;51.084;16.958;2023-02-21T00:34:40;99749.98;;;8.96;100.00
54600;BME280;40500;51.084;16.958;2023-02-21T00:37:32;99749.98;;;8.96;100.00
54600;BME280;40500;51.084;16.958;2023-02-21T00:40:20;99744.08;;;8.95;100.00
54600;BME280;40500;51.084;16.958;2023-02-21T00:43:08;99745.45;;;8.96;100.00
54600;BME280;40500;51.084;16.958;2023-02-21T00:45:56;99751.59;;;8.95;100.00
54600;BME280;40500;51.084;16.958;2023-02-21T00:48:45;99748.62;;;8.95;100.00
54600;BME280;40500;51.084;16.958;2023-02-21T00:51:33;99754.58;;;8.94;100.00
54600;BME280;40500;51.084;16.958;2023-02-21T00:54:21;99753.17;;;8.94;100.00
54600;BME280;40500;51.084;16.958;2023-02-21T00:57:09;99751.48;;;8.92;100.00
54600;BME280;40500;51.084;16.958;2023-02-21T00:59:58;99759.85;;;8.92;100.00
54600;BME280;40500;51.084;16.958;2023-02-21T01:02:46;99759.87;;;8.91;100.00
54600;BME280;40500;51.084;16.958;2023-02-21T01:05:34;99762.48;;;8.91;100.00
54600;BME280;40500;51.084;16.958;2023-02-21T01:08:23;99762.63;;;8.93;100.00
54600;BME280;40500;51.084;16.958;2023-02-21T01:11:16;99760.73;;;8.92;100.00
54600;BME280;40500;51.084;16.958;2023-02-21T01:14:06;99756.02;;;8.92;100.00
54600;BME280;40500;51.084;16.958;2023-02-21T01:16:56;99751.70;;;8.90;100.00
54600;BME280;40500;51.084;16.958;2023-02-21T01:19:44;99747.39;;;8.86;100.00
54600;BME280;40500;51.084;16.958;2023-02-21T01:22:37;99744.98;;;8.84;100.00
54600;BME280;40500;51.084;16.958;2023-02-21T01:25:25;99737.15;;;8.83;100.00
54600;BME280;40500;51.084;16.958;2023-02-21T01:28:14;99736.98;;;8.82;100.00
54600;BME280;40500;51.084;16.958;2023-02-21T01:31:04;99741.04;;;8.81;100.00
54600;BME280;40500;51.084;16.958;2023-02-21T01:33:53;99741.06;;;8.80;100.00
54600;BME280;40500;51.084;16.958;2023-02-21T01:36:42;99746.67;;;8.78;100.00
54600;BME280;40500;51.084;16.958;2023-02-21T01:39:30;99741.97;;;8.78;100.00
54600;BME280;40500;51.084;16.958;2023-02-21T01:42:18;99745.17;;;8.75;100.00
54600;BME280;40500;51.084;16.958;2023-02-21T01:45:43;99735.96;;;8.72;100.00
54600;BME280;40500;51.084;16.958;2023-02-21T01:48:33;99750.18;;;8.68;100.00
54600;BME280;40500;51.084;16.958;2023-02-21T01:51:24;99739.39;;;8.66;100.00
54600;BME280;40500;51.084;16.958;2023-02-21T01:54:14;99744.34;;;8.63;100.00
54600;BME280;40500;51.084;16.958;2023-02-21T01:57:03;99740.19;;;8.61;100.00
54600;BME280;40500;51.084;16.958;2023-02-21T01:59:55;99740.08;;;8.57;100.00
54600;BME280;40500;51.084;16.958;2023-02-21T02:02:49;99749.21;;;8.55;100.00
54600;BME280;40500;51.084;16.958;2023-02-21T02:05:39;99743.48;;;8.53;100.00
54600;BME280;40500;51.084;16.958;2023-02-21T02:08:30;99743.15;;;8.50;100.00
54600;BME280;40500;51.084;16.958;2023-02-21T02:11:34;99742.69;;;8.49;100.00
54600;BME280;40500;51.084;16.958;2023-02-21T02:14:42;99736.05;;;8.48;100.00
54600;BME280;40500;51.084;16.958;2023-02-21T02:17:32;99733.29;;;8.47;100.00
54600;BME280;40500;51.084;16.958;2023-02-21T02:20:29;99724.80;;;8.43;100.00
54600;BME280;40500;51.084;16.958;2023-02-21T02:26:49;99723.75;;;8.44;100.00
54600;BME280;40500;51.084;16.958;2023-02-21T02:29:42;99724.29;;;8.43;100.00
54600;BME280;40500;51.084;16.958;2023-02-21T02:32:30;99726.20;;;8.43;100.00
54600;BME280;40500;51.084;16.958;2023-02-21T02:35:05;99724.80;;;8.44;100.00
54600;BME280;40500;51.084;16.958;2023-02-21T02:37:46;99719.02;;;8.45;100.00
54600;BME280;40500;51.084;16.958;2023-02-21T02:40:26;99717.80;;;8.44;100.00
54600;BME280;40500;51.084;16.958;2023-02-21T02:43:09;99717.79;;;8.45;100.00
54600;BME280;40500;51.084;16.958;2023-02-21T02:45:47;99721.48;;;8.45;100.00
54600;BME280;40500;51.084;16.958;2023-02-21T02:48:30;99720.92;;;8.46;100.00
54600;BME280;40500;51.084;16.958;2023-02-21T02:51:06;99716.89;;;8.47;100.00
54600;BME280;40500;51.084;16.958;2023-02-21T02:53:41;99714.97;;;8.47;100.00
54600;BME280;40500;51.084;16.958;2023-02-21T02:56:13;99714.96;;;8.47;100.00
54600;BME280;40500;51.084;16.958;2023-02-21T02:58:47;99710.06;;;8.48;100.00
54600;BME280;40500;51.084;16.958;2023-02-21T03:01:34;99713.16;;;8.50;100.00
54600;BME280;40500;51.084;16.958;2023-02-21T03:04:22;99709.67;;;8.51;100.00
54600;BME280;40500;51.084;16.958;2023-02-21T03:07:05;99709.65;;;8.51;100.00
54600;BME280;40500;51.084;16.958;2023-02-21T03:09:46;99714.02;;;8.51;100.00
54600;BME280;40500;51.084;16.958;2023-02-21T03:12:28;99717.50;;;8.52;100.00
54600;BME280;40500;51.084;16.958;2023-02-21T03:15:06;99716.63;;;8.51;100.00
54600;BME280;40500;51.084;16.958;2023-02-21T03:17:50;99706.67;;;8.53;100.00
54600;BME280;40500;51.084;16.958;2023-02-21T03:20:23;99705.59;;;8.54;100.00
54600;BME280;40500;51.084;16.958;2023-02-21T03:22:57;99700.69;;;8.55;100.00
54600;BME280;40500;51.084;16.958;2023-02-21T03:25:30;99700.49;;;8.56;100.00
54600;BME280;40500;51.084;16.958;2023-02-21T03:28:03;99701.22;;;8.54;100.00
54600;BME280;40500;51.084;16.958;2023-02-21T03:30:41;99708.34;;;8.56;100.00
54600;BME280;40500;51.084;16.958;2023-02-21T03:33:14;99711.30;;;8.56;100.00
54600;BME280;40500;51.084;16.958;2023-02-21T03:35:45;99700.83;;;8.57;100.00
54600;BME280;40500;51.084;16.958;2023-02-21T03:38:16;99706.59;;;8.57;100.00
54600;BME280;40500;51.084;16.958;2023-02-21T03:40:46;99705.55;;;8.56;100.00
54600;BME280;40500;51.084;16.958;2023-02-21T03:43:17;99696.30;;;8.55;100.00
54600;BME280;40500;51.084;16.958;2023-02-21T03:45:55;99697.86;;;8.57;100.00
54600;BME280;40500;51.084;16.958;2023-02-21T03:48:29;99694.70;;;8.58;100.00
54600;BME280;40500;51.084;16.958;2023-02-21T03:51:21;99698.02;;;8.58;100.00
54600;BME280;40500;51.084;16.958;2023-02-21T03:53:53;99696.09;;;8.58;100.00
54600;BME280;40500;51.084;16.958;2023-02-21T03:56:32;99700.59;;;8.60;100.00
54600;BME280;40500;51.084;16.958;2023-02-21T03:59:26;99699.86;;;8.61;100.00
54600;BME280;40500;51.084;16.958;2023-02-21T04:01:56;99696.34;;;8.63;100.00
54600;BME280;40500;51.084;16.958;2023-02-21T04:04:32;99700.33;;;8.65;100.00
54600;BME280;40500;51.084;16.958;2023-02-21T04:07:12;99701.19;;;8.65;100.00
54600;BME280;40500;51.084;16.958;2023-02-21T04:09:47;99703.95;;;8.67;100.00
54600;BME280;40500;51.084;16.958;2023-02-21T04:12:25;99700.42;;;8.69;100.00
54600;BME280;40500;51.084;16.958;2023-02-21T04:14:57;99706.69;;;8.69;100.00
54600;BME280;40500;51.084;16.958;2023-02-21T04:17:28;99700.05;;;8.71;100.00
54600;BME280;40500;51.084;16.958;2023-02-21T04:20:00;99709.45;;;8.71;100.00
54600;BME280;40500;51.084;16.958;2023-02-21T04:22:33;99706.63;;;8.73;100.00
54600;BME280;40500;51.084;16.958;2023-02-21T04:25:04;99715.17;;;8.73;100.00
54600;BME280;40500;51.084;16.958;2023-02-21T04:27:40;99705.04;;;8.74;100.00
54600;BME280;40500;51.084;16.958;2023-02-21T04:30:19;99709.73;;;8.74;100.00
54600;BME280;40500;51.084;16.958;2023-02-21T04:32:54;99709.58;;;8.74;100.00
54600;BME280;40500;51.084;16.958;2023-02-21T04:35:27;99714.82;;;8.74;100.00
54600;BME280;40500;51.084;16.958;2023-02-21T04:38:04;99715.33;;;8.74;100.00
54600;BME280;40500;51.084;16.958;2023-02-21T04:40:34;99713.58;;;8.75;100.00
54600;BME280;40500;51.084;16.958;2023-02-21T04:43:07;99719.86;;;8.74;100.00
54600;BME280;40500;51.084;16.958;2023-02-21T04:45:40;99720.41;;;8.73;100.00
54600;BME280;40500;51.084;16.958;2023-02-21T04:48:11;99725.71;;;8.70;100.00
54600;BME280;40500;51.084;16.958;2023-02-21T04:50:42;99724.56;;;8.65;100.00
54600;BME280;40500;51.084;16.958;2023-02-21T04:53:12;99720.51;;;8.59;100.00
54600;BME280;40500;51.084;16.958;2023-02-21T04:55:44;99719.73;;;8.53;100.00
54600;BME280;40500;51.084;16.958;2023-02-21T04:58:15;99718.48;;;8.46;100.00
54600;BME280;40500;51.084;16.958;2023-02-21T05:00:49;99720.66;;;8.40;100.00
54600;BME280;40500;51.084;16.958;2023-02-21T05:03:19;99722.99;;;8.35;100.00
54600;BME280;40500;51.084;16.958;2023-02-21T05:05:50;99719.23;;;8.32;100.00
54600;BME280;40500;51.084;16.958;2023-02-21T05:08:22;99720.50;;;8.28;100.00
54600;BME280;40500;51.084;16.958;2023-02-21T05:10:56;99719.14;;;8.26;100.00
54600;BME280;40500;51.084;16.958;2023-02-21T05:13:27;99717.59;;;8.25;100.00
54600;BME280;40500;51.084;16.958;2023-02-21T05:15:58;99719.87;;;8.25;100.00
54600;BME280;40500;51.084;16.958;2023-02-21T05:18:28;99716.58;;;8.23;100.00
54600;BME280;40500;51.084;16.958;2023-02-21T05:20:59;99714.34;;;8.22;100.00
54600;BME280;40500;51.084;16.958;2023-02-21T05:23:31;99724.13;;;8.21;100.00
54600;BME280;40500;51.084;16.958;2023-02-21T05:26:10;99720.13;;;8.21;100.00
54600;BME280;40500;51.084;16.958;2023-02-21T05:28:42;99711.05;;;8.21;100.00
54600;BME280;40500;51.084;16.958;2023-02-21T05:31:15;99714.19;;;8.20;100.00
54600;BME280;40500;51.084;16.958;2023-02-21T05:33:47;99713.80;;;8.22;100.00
54600;BME280;40500;51.084;16.958;2023-02-21T05:36:17;99717.44;;;8.24;100.00
54600;BME280;40500;51.084;16.958;2023-02-21T05:38:51;99713.70;;;8.28;100.00
54600;BME280;40500;51.084;16.958;2023-02-21T05:41:22;99708.23;;;8.31;100.00
54600;BME280;40500;51.084;16.958;2023-02-21T05:43:53;99719.37;;;8.33;100.00
54600;BME280;40500;51.084;16.958;2023-02-21T05:46:27;99720.73;;;8.35;100.00
54600;BME280;40500;51.084;16.958;2023-02-21T05:48:59;99716.35;;;8.36;100.00
54600;BME280;40500;51.084;16.958;2023-02-21T05:51:34;99718.23;;;8.38;100.00
54600;BME280;40500;51.084;16.958;2023-02-21T05:54:06;99723.11;;;8.38;100.00
54600;BME280;40500;51.084;16.958;2023-02-21T05:56:41;99721.73;;;8.38;100.00
54600;BME280;40500;51.084;16.958;2023-02-21T05:59:16;99725.90;;;8.38;100.00
54600;BME280;40500;51.084;16.958;2023-02-21T06:01:49;99728.35;;;8.38;100.00
54600;BME280;40500;51.084;16.958;2023-02-21T06:04:20;99731.67;;;8.37;100.00
54600;BME280;40500;51.084;16.958;2023-02-21T06:06:54;99730.61;;;8.38;100.00
54600;BME280;40500;51.084;16.958;2023-02-21T06:09:26;99736.70;;;8.39;100.00
54600;BME280;40500;51.084;16.958;2023-02-21T06:11:59;99735.65;;;8.40;100.00
54600;BME280;40500;51.084;16.958;2023-02-21T06:14:36;99744.72;;;8.40;100.00
54600;BME280;40500;51.084;16.958;2023-02-21T06:17:07;99750.14;;;8.40;100.00
54600;BME280;40500;51.084;16.958;2023-02-21T06:19:38;99747.55;;;8.39;100.00
54600;BME280;40500;51.084;16.958;2023-02-21T06:22:10;99754.52;;;8.38;100.00
54600;BME280;40500;51.084;16.958;2023-02-21T06:24:43;99769.23;;;8.36;100.00
54600;BME280;40500;51.084;16.958;2023-02-21T06:27:17;99768.41;;;8.31;100.00
54600;BME280;40500;51.084;16.958;2023-02-21T06:29:47;99773.32;;;8.29;100.00
54600;BME280;40500;51.084;16.958;2023-02-21T06:32:18;99775.14;;;8.26;100.00
54600;BME280;40500;51.084;16.958;2023-02-21T06:34:49;99779.50;;;8.25;100.00
54600;BME280;40500;51.084;16.958;2023-02-21T06:37:20;99779.02;;;8.23;100.00
54600;BME280;40500;51.084;16.958;2023-02-21T06:39:51;99781.13;;;8.22;100.00
54600;BME280;40500;51.084;16.958;2023-02-21T06:42:21;99780.75;;;8.24;100.00
54600;BME280;40500;51.084;16.958;2023-02-21T06:44:59;99784.38;;;8.26;100.00
54600;BME280;40500;51.084;16.958;2023-02-21T06:47:30;99791.48;;;8.29;100.00
54600;BME280;40500;51.084;16.958;2023-02-21T06:50:00;99791.64;;;8.30;100.00
54600;BME280;40500;51.084;16.958;2023-02-21T06:55:04;99795.46;;;8.31;100.00
54600;BME280;40500;51.084;16.958;2023-02-21T06:57:44;99795.10;;;8.32;100.00
54600;BME280;40500;51.084;16.958;2023-02-21T07:00:15;99799.39;;;8.37;100.00
54600;BME280;40500;51.084;16.958;2023-02-21T07:02:49;99799.85;;;8.41;100.00
54600;BME280;40500;51.084;16.958;2023-02-21T07:05:21;99801.70;;;8.46;100.00
54600;BME280;40500;51.084;16.958;2023-02-21T07:07:51;99802.86;;;8.50;100.00
54600;BME280;40500;51.084;16.958;2023-02-21T07:10:22;99796.89;;;8.52;100.00
54600;BME280;40500;51.084;16.958;2023-02-21T07:12:55;99801.24;;;8.53;100.00
54600;BME280;40500;51.084;16.958;2023-02-21T07:15:25;99801.77;;;8.52;100.00
54600;BME280;40500;51.084;16.958;2023-02-21T07:17:56;99806.75;;;8.57;100.00
54600;BME280;40500;51.084;16.958;2023-02-21T07:20:28;99798.77;;;8.64;100.00
54600;BME280;40500;51.084;16.958;2023-02-21T07:23:04;99808.66;;;8.68;100.00
54600;BME280;40500;51.084;16.958;2023-02-21T07:25:34;99812.43;;;8.72;100.00
54600;BME280;40500;51.084;16.958;2023-02-21T07:28:07;99818.54;;;8.81;100.00
54600;BME280;40500;51.084;16.958;2023-02-21T07:30:38;99816.32;;;8.88;100.00
54600;BME280;40500;51.084;16.958;2023-02-21T07:33:10;99818.88;;;8.92;100.00
54600;BME280;40500;51.084;16.958;2023-02-21T07:35:44;99819.85;;;8.96;100.00
54600;BME280;40500;51.084;16.958;2023-02-21T07:38:21;99823.84;;;8.97;100.00
54600;BME280;40500;51.084;16.958;2023-02-21T07:40:59;99830.05;;;9.01;100.00
54600;BME280;40500;51.084;16.958;2023-02-21T07:43:33;99832.12;;;9.02;100.00
54600;BME280;40500;51.084;16.958;2023-02-21T07:46:07;99830.90;;;9.03;100.00
54600;BME280;40500;51.084;16.958;2023-02-21T07:48:39;99830.88;;;9.04;100.00
54600;BME280;40500;51.084;16.958;2023-02-21T07:51:10;99837.47;;;9.06;100.00
54600;BME280;40500;51.084;16.958;2023-02-21T07:53:43;99837.98;;;9.06;100.00
54600;BME280;40500;51.084;16.958;2023-02-21T07:56:16;99838.33;;;9.06;100.00
54600;BME280;40500;51.084;16.958;2023-02-21T07:58:48;99839.01;;;9.07;100.00
54600;BME280;40500;51.084;16.958;2023-02-21T08:01:23;99842.14;;;9.08;100.00
54600;BME280;40500;51.084;16.958;2023-02-21T08:03:54;99842.27;;;9.12;100.00
54600;BME280;40500;51.084;16.958;2023-02-21T08:06:26;99844.12;;;9.15;100.00
54600;BME280;40500;51.084;16.958;2023-02-21T08:08:58;99850.53;;;9.17;100.00
54600;BME280;40500;51.084;16.958;2023-02-21T08:11:31;99848.89;;;9.21;100.00
54600;BME280;40500;51.084;16.958;2023-02-21T08:14:07;99842.16;;;9.26;100.00
54600;BME280;40500;51.084;16.958;2023-02-21T08:16:39;99847.34;;;9.29;100.00
54600;BME280;40500;51.084;16.958;2023-02-21T08:19:12;99853.34;;;9.35;100.00
54600;BME280;40500;51.084;16.958;2023-02-21T08:21:46;99856.36;;;9.41;100.00
54600;BME280;40500;51.084;16.958;2023-02-21T08:24:17;99855.95;;;9.43;100.00
54600;BME280;40500;51.084;16.958;2023-02-21T08:26:50;99852.60;;;9.45;100.00
54600;BME280;40500;51.084;16.958;2023-02-21T08:29:21;99850.22;;;9.51;100.00
54600;BME280;40500;51.084;16.958;2023-02-21T08:31:56;99848.64;;;9.51;100.00
54600;BME280;40500;51.084;16.958;2023-02-21T08:34:28;99851.20;;;9.46;100.00
54600;BME280;40500;51.084;16.958;2023-02-21T08:36:59;99854.06;;;9.42;100.00
54600;BME280;40500;51.084;16.958;2023-02-21T08:39:29;99860.73;;;9.41;100.00
54600;BME280;40500;51.084;16.958;2023-02-21T08:42:00;99861.44;;;9.40;100.00
54600;BME280;40500;51.084;16.958;2023-02-21T08:44:32;99852.92;;;9.38;100.00
54600;BME280;40500;51.084;16.958;2023-02-21T08:47:03;99852.10;;;9.36;100.00
54600;BME280;40500;51.084;16.958;2023-02-21T08:49:33;99864.30;;;9.37;100.00
54600;BME280;40500;51.084;16.958;2023-02-21T08:52:12;99868.58;;;9.42;100.00
54600;BME280;40500;51.084;16.958;2023-02-21T08:54:45;99863.73;;;9.48;100.00
54600;BME280;40500;51.084;16.958;2023-02-21T08:57:18;99862.41;;;9.53;100.00
54600;BME280;40500;51.084;16.958;2023-02-21T08:59:49;99862.55;;;9.63;100.00
54600;BME280;40500;51.084;16.958;2023-02-21T09:02:21;99869.44;;;9.77;100.00
54600;BME280;40500;51.084;16.958;2023-02-21T09:04:53;99867.83;;;9.78;100.00
54600;BME280;40500;51.084;16.958;2023-02-21T09:07:24;99866.27;;;9.77;100.00
54600;BME280;40500;51.084;16.958;2023-02-21T09:09:56;99862.96;;;9.77;100.00
54600;BME280;40500;51.084;16.958;2023-02-21T09:12:29;99868.05;;;9.76;100.00
54600;BME280;40500;51.084;16.958;2023-02-21T09:15:02;99863.67;;;9.77;100.00
54600;BME280;40500;51.084;16.958;2023-02-21T09:17:32;99862.58;;;9.78;100.00
54600;BME280;40500;51.084;16.958;2023-02-21T09:20:07;99861.64;;;9.82;100.00
54600;BME280;40500;51.084;16.958;2023-02-21T09:22:38;99864.59;;;9.83;100.00
54600;BME280;40500;51.084;16.958;2023-02-21T09:25:12;99865.82;;;9.83;100.00
54600;BME280;40500;51.084;16.958;2023-02-21T09:27:43;99866.73;;;9.80;100.00
54600;BME280;40500;51.084;16.958;2023-02-21T09:30:16;99864.65;;;9.80;100.00
54600;BME280;40500;51.084;16.958;2023-02-21T09:32:49;99870.90;;;9.82;100.00
54600;BME280;40500;51.084;16.958;2023-02-21T09:35:20;99869.32;;;9.82;100.00
54600;BME280;40500;51.084;16.958;2023-02-21T09:37:52;99875.46;;;9.82;100.00
54600;BME280;40500;51.084;16.958;2023-02-21T09:40:35;99876.47;;;9.83;100.00
54600;BME280;40500;51.084;16.958;2023-02-21T09:43:13;99873.92;;;9.88;100.00
54600;BME280;40500;51.084;16.958;2023-02-21T09:45:45;99882.58;;;9.92;100.00
54600;BME280;40500;51.084;16.958;2023-02-21T09:48:20;99886.34;;;9.96;100.00
54600;BME280;40500;51.084;16.958;2023-02-21T09:50:55;99886.16;;;10.05;100.00
54600;BME280;40500;51.084;16.958;2023-02-21T09:53:31;99887.33;;;10.15;100.00
54600;BME280;40500;51.084;16.958;2023-02-21T09:56:06;99896.00;;;10.18;100.00
54600;BME280;40500;51.084;16.958;2023-02-21T09:58:42;99896.98;;;10.22;100.00
54600;BME280;40500;51.084;16.958;2023-02-21T10:01:22;99901.69;;;10.22;100.00
54600;BME280;40500;51.084;16.958;2023-02-21T10:04:03;99899.90;;;10.24;100.00
54600;BME280;40500;51.084;16.958;2023-02-21T10:06:41;99897.11;;;10.24;100.00
54600;BME280;40500;51.084;16.958;2023-02-21T10:09:23;99901.95;;;10.26;100.00
54600;BME280;40500;51.084;16.958;2023-02-21T10:12:09;99906.65;;;10.27;100.00
54600;BME280;40500;51.084;16.958;2023-02-21T10:15:00;99910.27;;;10.31;100.00
54600;BME280;40500;51.084;16.958;2023-02-21T10:17:37;99918.52;;;10.38;100.00
54600;BME280;40500;51.084;16.958;2023-02-21T10:20:14;99914.50;;;10.46;100.00
54600;BME280;40500;51.084;16.958;2023-02-21T10:22:46;99915.15;;;10.47;100.00
54600;BME280;40500;51.084;16.958;2023-02-21T10:25:26;99919.30;;;10.49;100.00
54600;BME280;40500;51.084;16.958;2023-02-21T10:28:07;99923.63;;;10.45;100.00
54600;BME280;40500;51.084;16.958;2023-02-21T10:30:38;99921.73;;;10.43;100.00
54600;BME280;40500;51.084;16.958;2023-02-21T10:33:18;99925.96;;;10.41;100.00
54600;BME280;40500;51.084;16.958;2023-02-21T10:36:01;99929.80;;;10.42;100.00
54600;BME280;40500;51.084;16.958;2023-02-21T10:38:34;99929.66;;;10.40;100.00
54600;BME280;40500;51.084;16.958;2023-02-21T10:41:05;99931.20;;;10.34;100.00
54600;BME280;40500;51.084;16.958;2023-02-21T10:43:38;99929.10;;;10.25;100.00
54600;BME280;40500;51.084;16.958;2023-02-21T10:46:19;99935.02;;;10.10;100.00
54600;BME280;40500;51.084;16.958;2023-02-21T10:48:58;99938.20;;;9.92;100.00
54600;BME280;40500;51.084;16.958;2023-02-21T10:51:40;99939.45;;;9.83;100.00
54600;BME280;40500;51.084;16.958;2023-02-21T10:54:21;99940.61;;;9.77;100.00
54600;BME280;40500;51.084;16.958;2023-02-21T10:56:55;99944.23;;;9.79;100.00
54600;BME280;40500;51.084;16.958;2023-02-21T10:59:28;99949.17;;;9.85;100.00
54600;BME280;40500;51.084;16.958;2023-02-21T11:02:02;99942.06;;;9.83;100.00
54600;BME280;40500;51.084;16.958;2023-02-21T11:04:34;99941.53;;;9.83;100.00
54600;BME280;40500;51.084;16.958;2023-02-21T11:07:09;99941.73;;;9.82;100.00
54600;BME280;40500;51.084;16.958;2023-02-21T11:09:45;99938.66;;;9.86;100.00
54600;BME280;40500;51.084;16.958;2023-02-21T11:12:22;99944.77;;;9.96;100.00
54600;BME280;40500;51.084;16.958;2023-02-21T11:15:18;99949.70;;;10.11;100.00
54600;BME280;40500;51.084;16.958;2023-02-21T11:18:03;99950.37;;;10.20;100.00
54600;BME280;40500;51.084;16.958;2023-02-21T11:20:34;99946.70;;;10.29;100.00
54600;BME280;40500;51.084;16.958;2023-02-21T11:23:05;99947.61;;;10.44;100.00
54600;BME280;40500;51.084;16.958;2023-02-21T11:25:49;99947.42;;;10.59;100.00
54600;BME280;40500;51.084;16.958;2023-02-21T11:28:22;99943.29;;;10.64;100.00
54600;BME280;40500;51.084;16.958;2023-02-21T11:31:11;99945.27;;;10.76;100.00
54600;BME280;40500;51.084;16.958;2023-02-21T11:33:51;99941.55;;;10.86;100.00
54600;BME280;40500;51.084;16.958;2023-02-21T11:36:28;99944.33;;;10.86;100.00
54600;BME280;40500;51.084;16.958;2023-02-21T11:39:06;99947.77;;;10.82;100.00
54600;BME280;40500;51.084;16.958;2023-02-21T11:41:48;99949.80;;;10.85;100.00
54600;BME280;40500;51.084;16.958;2023-02-21T11:44:30;99949.30;;;10.91;100.00
54600;BME280;40500;51.084;16.958;2023-02-21T11:47:10;99948.91;;;10.86;100.00
54600;BME280;40500;51.084;16.958;2023-02-21T11:50:08;99953.39;;;10.81;100.00
54600;BME280;40500;51.084;16.958;2023-02-21T11:52:44;99951.56;;;10.77;100.00
54600;BME280;40500;51.084;16.958;2023-02-21T11:55:21;99954.70;;;10.78;100.00
54600;BME280;40500;51.084;16.958;2023-02-21T11:58:05;99956.90;;;10.81;100.00
54600;BME280;40500;51.084;16.958;2023-02-21T12:00:45;99959.72;;;10.80;100.00
54600;BME280;40500;51.084;16.958;2023-02-21T12:03:44;99961.41;;;10.83;100.00
54600;BME280;40500;51.084;16.958;2023-02-21T12:06:23;99960.13;;;11.00;100.00
54600;BME280;40500;51.084;16.958;2023-02-21T12:09:03;99961.20;;;11.13;100.00
54600;BME280;40500;51.084;16.958;2023-02-21T12:11:46;99959.20;;;11.23;100.00
54600;BME280;40500;51.084;16.958;2023-02-21T12:14:42;99956.70;;;11.45;100.00
54600;BME280;40500;51.084;16.958;2023-02-21T12:17:41;99960.61;;;11.62;100.00
54600;BME280;40500;51.084;16.958;2023-02-21T12:20:30;99952.27;;;11.79;100.00
54600;BME280;40500;51.084;16.958;2023-02-21T12:23:14;99953.39;;;11.89;100.00
54600;BME280;40500;51.084;16.958;2023-02-21T12:26:00;99948.48;;;11.82;100.00
54600;BME280;40500;51.084;16.958;2023-02-21T12:28:46;99940.70;;;11.78;100.00
54600;BME280;40500;51.084;16.958;2023-02-21T12:31:31;99939.41;;;11.68;100.00
54600;BME280;40500;51.084;16.958;2023-02-21T12:34:14;99942.14;;;11.64;100.00
54600;BME280;40500;51.084;16.958;2023-02-21T12:36:54;99936.58;;;11.57;100.00
54600;BME280;40500;51.084;16.958;2023-02-21T12:39:40;99949.68;;;11.44;100.00
54600;BME280;40500;51.084;16.958;2023-02-21T12:42:34;99942.04;;;11.35;100.00
54600;BME280;40500;51.084;16.958;2023-02-21T12:45:23;99946.36;;;11.31;100.00
54600;BME280;40500;51.084;16.958;2023-02-21T12:48:04;99948.85;;;11.30;100.00
54600;BME280;40500;51.084;16.958;2023-02-21T12:50:48;99941.39;;;11.33;100.00
54600;BME280;40500;51.084;16.958;2023-02-21T12:53:24;99937.63;;;11.36;100.00
54600;BME280;40500;51.084;16.958;2023-02-21T12:56:02;99932.79;;;11.41;100.00
54600;BME280;40500;51.084;16.958;2023-02-21T12:58:34;99929.70;;;11.44;100.00
54600;BME280;40500;51.084;16.958;2023-02-21T13:01:09;99931.90;;;11.54;100.00
54600;BME280;40500;51.084;16.958;2023-02-21T13:03:55;99936.09;;;11.61;100.00
54600;BME280;40500;51.084;16.958;2023-02-21T13:06:31;99934.34;;;11.73;100.00
54600;BME280;40500;51.084;16.958;2023-02-21T13:09:14;99924.27;;;11.76;100.00
54600;BME280;40500;51.084;16.958;2023-02-21T13:11:53;99927.25;;;11.70;100.00
54600;BME280;40500;51.084;16.958;2023-02-21T13:14:30;99930.27;;;11.80;100.00
54600;BME280;40500;51.084;16.958;2023-02-21T13:17:02;99924.52;;;11.80;100.00
54600;BME280;40500;51.084;16.958;2023-02-21T13:19:43;99928.34;;;12.34;100.00
54600;BME280;40500;51.084;16.958;2023-02-21T13:25:35;99918.39;;;13.66;100.00
54600;BME280;40500;51.084;16.958;2023-02-21T13:28:13;99922.05;;;13.32;100.00
54600;BME280;40500;51.084;16.958;2023-02-21T13:30:49;99920.64;;;13.31;100.00
54600;BME280;40500;51.084;16.958;2023-02-21T13:33:34;99924.79;;;13.23;100.00
54600;BME280;40500;51.084;16.958;2023-02-21T13:36:24;99921.36;;;13.36;100.00
54600;BME280;40500;51.084;16.958;2023-02-21T13:39:03;99923.52;;;13.69;100.00
54600;BME280;40500;51.084;16.958;2023-02-21T13:41:37;99930.20;;;14.76;100.00
54600;BME280;40500;51.084;16.958;2023-02-21T13:44:15;99928.25;;;15.06;100.00
54600;BME280;40500;51.084;16.958;2023-02-21T13:47:09;99929.90;;;15.09;100.00
54600;BME280;40500;51.084;16.958;2023-02-21T13:49:50;99934.98;;;14.62;100.00
54600;BME280;40500;51.084;16.958;2023-02-21T13:55:30;99930.80;;;15.90;100.00
54600;BME280;40500;51.084;16.958;2023-02-21T14:07:04;99922.88;;;17.67;100.00